Terminal Aerodrome Forecast
Issued by NWS

Home | Current Version | Previous Version | Text Only | Print | Product List | Glossary On
Versions: 1 2 3 4 5 6 7 8 9 10 11 12 13
000
FTUS42 KMLB 111700
TAFSFB
TAF
KSFB 111723Z 1118/1218 19006KT P6SM VCTS SCT030CB BKN250
      TEMPO 1118/1119 3SM SHRA BKN030
     FM111900 16007KT P6SM VCTS SCT035CB BKN100 BKN250
      TEMPO 1119/1121 2SM TSRA BKN020CB OVC040
     FM120200 15003KT P6SM SCT100 BKN250
     FM121300 13004KT P6SM FEW030 SCT100 BKN250=

USA.gov is the U.S. government's official web portal to all federal, state and local government web resources and services.